createdAt,value
2018-12-01T00:01:50.728Z,42.93
2018-12-01T00:04:20.831Z,46.68
2018-12-01T00:07:09.188Z,42.90
2018-12-01T00:09:39.620Z,44.75
2018-12-01T00:12:10.009Z,44.50
2018-12-01T00:14:40.398Z,42.75
2018-12-01T00:17:11.043Z,41.70
2018-12-01T00:19:41.693Z,41.92
2018-12-01T00:22:11.877Z,42.78
2018-12-01T00:24:42.147Z,41.75
2018-12-01T00:27:12.348Z,42.62
2018-12-01T00:29:42.582Z,38.88
2018-12-01T00:32:12.810Z,39.35
2018-12-01T00:34:43.036Z,39.15
2018-12-01T00:37:13.368Z,39.33
2018-12-01T00:39:43.576Z,37.50
2018-12-01T00:42:14.033Z,35.48
2018-12-01T00:44:44.237Z,34.43
2018-12-01T00:47:14.223Z,34.33
2018-12-01T00:49:44.508Z,36.88
2018-12-01T00:52:14.513Z,34.80
2018-12-01T00:54:44.715Z,35.92
2018-12-01T00:57:14.986Z,36.23
2018-12-01T00:59:45.280Z,34.20
2018-12-01T01:02:20.486Z,34.88
2018-12-01T01:04:50.748Z,34.65
2018-12-01T01:07:21.085Z,34.90
2018-12-01T01:09:51.151Z,35.15
2018-12-01T01:12:21.360Z,35.33
2018-12-01T01:14:51.588Z,34.75
2018-12-01T01:17:21.795Z,33.13
2018-12-01T01:19:52.119Z,32.45
2018-12-01T01:22:22.420Z,34.60
2018-12-01T01:24:52.660Z,33.70
2018-12-01T01:27:22.944Z,36.10
2018-12-01T01:29:53.213Z,39.70
2018-12-01T01:32:23.625Z,40.92
2018-12-01T01:34:54.100Z,41.40
2018-12-01T01:37:24.532Z,41.02
2018-12-01T01:39:54.978Z,43.42
2018-12-01T01:42:25.496Z,45.80
2018-12-01T01:44:55.745Z,51.80
2018-12-01T01:47:25.969Z,52.00
2018-12-01T01:49:56.669Z,53.08
2018-12-01T01:52:26.985Z,65.35
2018-12-01T01:54:57.330Z,78.17
2018-12-01T01:57:27.653Z,67.42
2018-12-01T01:59:57.882Z,63.48
2018-12-01T02:02:28.111Z,61.48
2018-12-01T02:04:58.370Z,57.33
2018-12-01T02:07:28.563Z,53.90
2018-12-01T02:09:58.782Z,52.40
2018-12-01T02:12:29.002Z,50.95
2018-12-01T02:14:59.205Z,51.73
2018-12-01T02:17:29.549Z,49.65
2018-12-01T02:19:59.772Z,46.85
2018-12-01T02:22:30.011Z,44.95
2018-12-01T02:25:00.377Z,45.40
2018-12-01T02:27:30.960Z,46.20
2018-12-01T02:30:01.190Z,44.48
2018-12-01T02:32:31.173Z,45.98
2018-12-01T02:35:01.399Z,43.38
2018-12-01T02:37:31.606Z,42.85
2018-12-01T02:40:01.828Z,44.58
2018-12-01T02:42:32.086Z,51.70
2018-12-01T02:45:13.317Z,51.40
2018-12-01T02:47:43.517Z,48.60
2018-12-01T02:50:13.917Z,48.15
2018-12-01T02:52:44.181Z,48.00
2018-12-01T02:55:14.304Z,51.23
2018-12-01T02:57:44.552Z,66.42
2018-12-01T03:00:14.889Z,71.72
2018-12-01T03:02:45.269Z,70.35
2018-12-01T03:05:15.539Z,54.50
2018-12-01T03:07:46.184Z,52.17
2018-12-01T03:10:17.657Z,50.85
2018-12-01T03:12:47.880Z,48.33
2018-12-01T03:15:18.746Z,41.50
2018-12-01T03:17:49.615Z,42.78
2018-12-01T03:20:20.044Z,40.98
2018-12-01T03:22:50.331Z,39.08
2018-12-01T03:25:24.854Z,40.67
2018-12-01T03:27:55.936Z,38.28
2018-12-01T03:30:26.819Z,38.48
2018-12-01T03:32:57.029Z,39.45
2018-12-01T03:35:27.263Z,39.25
2018-12-01T03:37:57.473Z,36.95
2018-12-01T03:40:27.793Z,38.45
2018-12-01T03:42:58.059Z,39.30
2018-12-01T03:45:28.268Z,40.48
2018-12-01T03:47:58.498Z,43.40
2018-12-01T03:50:28.738Z,47.48
2018-12-01T03:52:59.126Z,46.73
2018-12-01T03:55:34.839Z,49.98
2018-12-01T03:58:05.190Z,48.38
2018-12-01T04:00:36.214Z,49.35
2018-12-01T04:03:07.939Z,48.65
2018-12-01T04:05:38.164Z,48.05
2018-12-01T04:08:08.498Z,44.67
2018-12-01T04:10:38.780Z,46.95
2018-12-01T04:13:09.264Z,41.98
2018-12-01T04:15:39.510Z,40.35
2018-12-01T04:18:09.817Z,38.25
2018-12-01T04:20:40.757Z,38.23
2018-12-01T04:23:10.739Z,36.65
2018-12-01T04:25:41.000Z,40.38
2018-12-01T04:28:11.940Z,37.03
2018-12-01T04:30:42.215Z,41.02
2018-12-01T04:33:12.865Z,41.50
2018-12-01T04:35:46.167Z,41.65
2018-12-01T04:38:16.427Z,39.73
2018-12-01T04:40:46.740Z,41.53
2018-12-01T04:43:16.967Z,43.73
2018-12-01T04:45:47.239Z,52.83
2018-12-01T04:48:17.436Z,55.48
2018-12-01T04:50:47.715Z,55.80
2018-12-01T04:53:18.105Z,54.42
2018-12-01T04:55:48.304Z,56.05
2018-12-01T04:58:18.556Z,58.40
2018-12-01T05:00:48.903Z,59.38
2018-12-01T05:03:19.114Z,60.65
2018-12-01T05:05:49.181Z,61.10
2018-12-01T05:08:19.402Z,55.45
2018-12-01T05:10:49.373Z,54.42
2018-12-01T05:13:19.571Z,53.70
2018-12-01T05:15:50.047Z,58.68
2018-12-01T05:18:20.247Z,55.58
2018-12-01T05:20:50.493Z,55.90
2018-12-01T05:23:20.727Z,53.60
2018-12-01T05:25:50.981Z,56.83
2018-12-01T05:28:21.196Z,48.68
2018-12-01T05:30:51.459Z,47.83
2018-12-01T05:33:21.915Z,40.50
2018-12-01T05:35:52.535Z,38.58
2018-12-01T05:38:22.927Z,39.35
2018-12-01T05:40:53.258Z,36.45
2018-12-01T05:43:23.453Z,36.38
2018-12-01T05:45:53.711Z,37.42
2018-12-01T05:48:23.940Z,39.20
2018-12-01T05:50:54.554Z,42.23
2018-12-01T05:53:24.770Z,37.78
2018-12-01T05:55:55.039Z,38.00
2018-12-01T05:58:25.242Z,37.75
2018-12-01T06:00:55.642Z,38.98
2018-12-01T06:03:25.931Z,39.48
2018-12-01T06:05:56.127Z,40.98
2018-12-01T06:08:26.343Z,41.48
2018-12-01T06:10:56.554Z,41.48
2018-12-01T06:13:26.974Z,42.10
2018-12-01T06:15:57.235Z,46.73
2018-12-01T06:18:27.431Z,43.95
2018-12-01T06:20:57.622Z,45.80
2018-12-01T06:23:27.856Z,42.35
2018-12-01T06:25:58.139Z,42.03
2018-12-01T06:28:28.369Z,42.43
2018-12-01T06:30:58.892Z,43.23
2018-12-01T06:33:29.224Z,45.33
2018-12-01T06:35:59.622Z,43.23
2018-12-01T06:38:29.875Z,44.90
2018-12-01T06:41:00.097Z,45.48
2018-12-01T06:43:30.348Z,43.85
2018-12-01T06:46:00.543Z,46.05
2018-12-01T06:48:30.737Z,55.58
2018-12-01T06:51:00.957Z,58.02
2018-12-01T06:53:31.276Z,58.08
2018-12-01T06:56:01.679Z,59.45
2018-12-01T06:58:31.893Z,57.60
2018-12-01T07:01:02.110Z,55.10
2018-12-01T07:03:32.141Z,54.55
2018-12-01T07:06:02.463Z,55.78
2018-12-01T07:08:32.679Z,53.45
2018-12-01T07:11:03.276Z,51.20
2018-12-01T07:13:33.530Z,48.73
2018-12-01T07:16:03.744Z,49.80
2018-12-01T07:18:45.049Z,48.98
2018-12-01T07:21:15.396Z,50.67
2018-12-01T07:23:45.827Z,48.68
2018-12-01T07:26:16.020Z,49.95
2018-12-01T07:28:46.306Z,49.42
2018-12-01T07:31:16.560Z,48.52
2018-12-01T07:33:46.745Z,49.18
2018-12-01T07:36:17.050Z,50.48
2018-12-01T07:38:47.499Z,51.92
2018-12-01T07:41:17.796Z,54.27
2018-12-01T07:43:48.008Z,49.67
2018-12-01T07:46:18.317Z,51.42
2018-12-01T07:48:48.785Z,56.85
2018-12-01T07:51:18.978Z,72.30
2018-12-01T07:53:49.209Z,85.62
2018-12-01T07:56:19.449Z,89.17
2018-12-01T07:58:49.684Z,78.28
2018-12-01T08:01:19.928Z,78.83
2018-12-01T08:03:50.124Z,77.72
2018-12-01T08:06:20.315Z,77.27
2018-12-01T08:08:50.677Z,71.85
2018-12-01T08:11:24.179Z,75.15
2018-12-01T08:13:54.728Z,72.65
2018-12-01T08:16:24.918Z,73.05
2018-12-01T08:18:55.112Z,75.65
2018-12-01T08:21:25.321Z,74.62
2018-12-01T08:23:55.524Z,67.05
2018-12-01T08:26:25.817Z,62.70
2018-12-01T08:28:56.106Z,57.90
2018-12-01T08:31:26.315Z,56.90
2018-12-01T08:33:56.579Z,58.25
2018-12-01T08:36:26.768Z,58.63
2018-12-01T08:38:57.035Z,52.48
2018-12-01T08:41:27.274Z,53.17
2018-12-01T08:43:57.804Z,51.50
2018-12-01T08:46:28.125Z,70.10
2018-12-01T08:48:58.355Z,70.92
2018-12-01T08:51:28.802Z,70.22
2018-12-01T08:53:59.419Z,67.30
2018-12-01T08:56:30.024Z,62.85
2018-12-01T08:59:00.329Z,57.73
2018-12-01T09:01:30.525Z,59.90
2018-12-01T09:04:00.748Z,55.98
2018-12-01T09:06:31.022Z,57.67
2018-12-01T09:09:01.542Z,59.55
2018-12-01T09:11:31.680Z,56.28
2018-12-01T09:14:01.913Z,58.90
2018-12-01T09:16:32.322Z,58.92
2018-12-01T09:19:02.528Z,62.93
2018-12-01T09:21:32.727Z,62.67
2018-12-01T09:24:02.916Z,63.65
2018-12-01T09:26:33.135Z,63.23
2018-12-01T09:29:03.504Z,65.00
2018-12-01T09:31:34.011Z,64.67
2018-12-01T09:34:04.655Z,67.67
2018-12-01T09:36:34.849Z,65.40
2018-12-01T09:39:06.774Z,67.85
2018-12-01T09:41:37.088Z,68.07
2018-12-01T09:44:07.370Z,66.62
2018-12-01T09:46:37.858Z,66.82
2018-12-01T09:49:08.235Z,66.87
2018-12-01T09:51:38.508Z,64.12
2018-12-01T09:54:08.713Z,57.85
2018-12-01T09:56:38.968Z,48.23
2018-12-01T09:59:09.163Z,44.70
2018-12-01T10:01:39.392Z,49.50
2018-12-01T10:04:09.894Z,51.05
2018-12-01T10:06:40.108Z,49.00
2018-12-01T10:09:10.767Z,39.08
2018-12-01T10:11:41.376Z,36.65
2018-12-01T10:14:11.575Z,39.90
2018-12-01T10:16:41.860Z,38.78
2018-12-01T10:19:12.056Z,38.17
2018-12-01T10:21:42.252Z,39.27
2018-12-01T10:24:12.420Z,39.08
2018-12-01T10:26:42.664Z,38.20
2018-12-01T10:29:12.897Z,40.48
2018-12-01T10:31:43.164Z,35.95
2018-12-01T10:34:13.638Z,35.43
2018-12-01T10:36:43.907Z,33.67
2018-12-01T10:39:14.173Z,38.17
2018-12-01T10:41:44.391Z,41.25
2018-12-01T10:44:14.606Z,42.75
2018-12-01T10:46:44.857Z,41.92
2018-12-01T10:49:15.120Z,42.15
2018-12-01T10:51:45.325Z,44.60
2018-12-01T10:54:15.495Z,46.88
2018-12-01T10:56:45.743Z,48.73
2018-12-01T10:59:15.988Z,39.75
2018-12-01T11:01:51.328Z,40.80
2018-12-01T11:04:26.542Z,41.00
2018-12-01T11:06:56.797Z,42.33
2018-12-01T11:09:27.024Z,44.20
2018-12-01T11:11:57.494Z,42.53
2018-12-01T11:14:28.100Z,43.38
2018-12-01T11:16:58.588Z,44.25
2018-12-01T11:19:28.927Z,44.08
2018-12-01T11:21:59.382Z,44.75
2018-12-01T11:24:29.936Z,43.63
2018-12-01T11:27:00.290Z,44.15
2018-12-01T11:29:30.963Z,45.90
2018-12-01T11:32:01.844Z,50.05
2018-12-01T11:34:32.073Z,46.73
2018-12-01T11:37:02.375Z,48.98
2018-12-01T11:39:32.873Z,49.20
2018-12-01T11:42:03.092Z,48.20
2018-12-01T11:44:33.334Z,49.75
2018-12-01T11:47:03.559Z,53.35
2018-12-01T11:49:34.378Z,52.30
2018-12-01T11:52:04.720Z,51.92
2018-12-01T11:54:34.934Z,51.65
2018-12-01T11:57:05.150Z,51.63
2018-12-01T11:59:35.545Z,54.00
2018-12-01T12:02:06.334Z,52.38
2018-12-01T12:04:37.041Z,52.17
2018-12-01T12:07:16.803Z,53.10
2018-12-01T12:09:47.018Z,52.13
2018-12-01T12:12:17.241Z,49.23
2018-12-01T12:14:51.981Z,50.38
2018-12-01T12:17:17.892Z,53.17
2018-12-01T12:19:48.239Z,53.95
2018-12-01T12:22:18.595Z,58.55
2018-12-01T12:24:48.953Z,49.95
2018-12-01T12:27:19.207Z,47.73
2018-12-01T12:29:49.433Z,46.18
2018-12-01T12:32:19.669Z,47.85
2018-12-01T12:34:50.016Z,45.98
2018-12-01T12:37:20.341Z,47.15
2018-12-01T12:39:50.531Z,47.48
2018-12-01T12:42:20.719Z,45.88
2018-12-01T12:44:51.091Z,47.23
2018-12-01T12:47:21.431Z,49.05
2018-12-01T12:49:51.662Z,48.87
2018-12-01T12:52:21.916Z,49.50
2018-12-01T12:54:52.162Z,50.65
2018-12-01T12:57:22.728Z,51.58
2018-12-01T12:59:53.511Z,53.33
2018-12-01T13:02:24.621Z,50.95
2018-12-01T13:04:54.858Z,53.08
2018-12-01T13:07:25.516Z,56.33
2018-12-01T13:09:55.843Z,55.33
2018-12-01T13:12:26.378Z,51.40
2018-12-01T13:14:56.931Z,50.73
2018-12-01T13:17:27.584Z,50.48
2018-12-01T13:19:58.382Z,47.48
2018-12-01T13:22:29.171Z,47.38
2018-12-01T13:24:59.396Z,47.62
2018-12-01T13:27:29.617Z,44.53
2018-12-01T13:29:59.993Z,40.90
2018-12-01T13:32:30.262Z,40.80
2018-12-01T13:35:00.559Z,41.98
2018-12-01T13:37:30.829Z,42.88
2018-12-01T13:40:01.241Z,42.13
2018-12-01T13:42:31.578Z,41.18
2018-12-01T13:45:02.392Z,43.50
2018-12-01T13:47:33.475Z,46.25
2018-12-01T13:50:04.109Z,43.68
2018-12-01T13:52:34.626Z,45.33
2018-12-01T13:55:05.119Z,57.10
2018-12-01T13:57:35.763Z,54.67
2018-12-01T14:00:14.426Z,46.35
2018-12-01T14:02:44.723Z,48.68
2018-12-01T14:05:15.110Z,48.48
2018-12-01T14:07:45.903Z,48.28
2018-12-01T14:10:24.822Z,48.83
2018-12-01T14:12:57.515Z,50.23
2018-12-01T14:15:27.900Z,47.88
2018-12-01T14:17:58.263Z,47.43
2018-12-01T14:20:29.034Z,49.20
2018-12-01T14:22:59.301Z,48.80
2018-12-01T14:25:29.633Z,49.63
2018-12-01T14:28:03.084Z,50.20
2018-12-01T14:30:33.428Z,54.93
2018-12-01T14:33:03.733Z,57.23
2018-12-01T14:35:35.593Z,53.35
2018-12-01T14:38:09.718Z,52.73
2018-12-01T14:40:41.209Z,46.40
2018-12-01T14:43:11.529Z,49.93
2018-12-01T14:45:42.605Z,51.65
2018-12-01T14:48:12.794Z,55.25
2018-12-01T14:50:48.357Z,55.67
2018-12-01T14:53:15.012Z,52.73
2018-12-01T14:55:45.403Z,55.10
2018-12-01T14:58:15.676Z,56.18
2018-12-01T15:00:45.934Z,56.73
2018-12-01T15:03:16.148Z,58.13
2018-12-01T15:05:47.265Z,57.20
2018-12-01T15:08:17.625Z,57.75
2018-12-01T15:10:47.833Z,58.15
2018-12-01T15:13:18.079Z,56.98
2018-12-01T15:15:48.439Z,60.52
2018-12-01T15:18:18.739Z,67.42
2018-12-01T15:20:48.944Z,60.03
2018-12-01T15:23:19.155Z,56.10
2018-12-01T15:25:49.186Z,61.02
2018-12-01T15:28:19.438Z,56.48
2018-12-01T15:30:49.732Z,59.15
2018-12-01T15:33:19.967Z,60.55
2018-12-01T15:35:50.167Z,61.63
2018-12-01T15:38:20.447Z,66.57
2018-12-01T15:40:51.855Z,69.03
2018-12-01T15:43:22.086Z,68.72
2018-12-01T15:45:52.327Z,71.07
2018-12-01T15:48:25.727Z,75.17
2018-12-01T15:50:55.946Z,76.60
2018-12-01T15:53:26.576Z,77.25
2018-12-01T15:55:57.240Z,75.10
2018-12-01T15:58:27.539Z,79.85
2018-12-01T16:00:58.869Z,79.30
2018-12-01T16:03:29.646Z,81.75
2018-12-01T16:06:00.130Z,81.55
2018-12-01T16:08:30.662Z,83.72
2018-12-01T16:11:01.454Z,85.10
2018-12-01T16:13:33.086Z,92.15
2018-12-01T16:16:06.208Z,93.87
2018-12-01T16:18:36.722Z,94.17
2018-12-01T16:21:08.316Z,93.15
2018-12-01T16:23:39.403Z,90.03
2018-12-01T16:26:09.749Z,92.70
2018-12-01T16:28:40.002Z,94.87
2018-12-01T16:31:10.367Z,92.37
2018-12-01T16:33:41.637Z,96.67
2018-12-01T16:36:12.575Z,97.30
2018-12-01T16:38:42.881Z,102.72
2018-12-01T16:41:21.212Z,104.40
2018-12-01T16:43:52.584Z,119.57
2018-12-01T16:46:23.147Z,119.93
2018-12-01T16:48:53.487Z,121.90
2018-12-01T16:51:23.828Z,123.45
2018-12-01T16:53:54.657Z,125.78
2018-12-01T16:56:25.115Z,117.00
2018-12-01T16:58:55.744Z,116.67
2018-12-01T17:01:26.072Z,116.50
2018-12-01T17:03:56.344Z,113.83
2018-12-01T17:06:26.609Z,114.03
2018-12-01T17:08:57.401Z,111.42
2018-12-01T17:11:30.455Z,108.78
2018-12-01T17:14:01.767Z,110.52
2018-12-01T17:16:32.419Z,108.55
2018-12-01T17:19:03.606Z,112.47
2018-12-01T17:21:33.946Z,112.28
2018-12-01T17:24:04.202Z,106.27
2018-12-01T17:26:34.968Z,107.60
2018-12-01T17:29:05.483Z,104.38
2018-12-01T17:31:35.828Z,109.17
2018-12-01T17:34:06.636Z,112.47
2018-12-01T17:36:36.924Z,112.12
2018-12-01T17:39:09.765Z,111.52
2018-12-01T17:41:40.285Z,113.10
2018-12-01T17:44:11.096Z,110.45
2018-12-01T17:46:41.428Z,113.28
2018-12-01T17:49:11.792Z,112.77
2018-12-01T17:51:42.010Z,119.72
2018-12-01T17:54:14.397Z,115.30
2018-12-01T17:56:44.467Z,116.62
2018-12-01T17:59:15.004Z,118.82
2018-12-01T18:01:45.221Z,114.82
2018-12-01T18:04:15.569Z,117.10
2018-12-01T18:06:45.880Z,126.05
2018-12-01T18:09:16.129Z,120.13
2018-12-01T18:11:46.479Z,121.85
2018-12-01T18:14:16.697Z,124.12
2018-12-01T18:16:47.159Z,121.70
2018-12-01T18:19:17.378Z,112.97
2018-12-01T18:21:47.811Z,116.15
2018-12-01T18:24:18.380Z,122.35
2018-12-01T18:26:48.923Z,119.33
2018-12-01T18:29:19.412Z,115.22
2018-12-01T18:31:49.996Z,114.90
2018-12-01T18:34:20.565Z,132.87
2018-12-01T18:36:50.928Z,176.00
2018-12-01T18:39:21.302Z,187.55
2018-12-01T18:41:51.596Z,191.47
2018-12-01T18:44:22.047Z,150.12
2018-12-01T18:46:52.405Z,148.70
2018-12-01T18:49:23.083Z,136.68
2018-12-01T18:51:53.748Z,137.05
2018-12-01T18:54:24.214Z,136.80
2018-12-01T18:56:54.431Z,139.07
2018-12-01T18:59:24.725Z,137.62
2018-12-01T19:01:54.943Z,135.95
2018-12-01T19:04:25.276Z,131.63
2018-12-01T19:06:55.530Z,122.80
2018-12-01T19:09:25.988Z,123.85
2018-12-01T19:11:56.356Z,121.07
2018-12-01T19:14:27.012Z,122.65
2018-12-01T19:16:57.824Z,121.77
2018-12-01T19:19:28.365Z,123.78
2018-12-01T19:21:59.961Z,127.38
2018-12-01T19:24:30.700Z,133.37
2018-12-01T19:27:01.359Z,129.50
2018-12-01T19:29:31.687Z,128.53
2018-12-01T19:32:01.972Z,137.47
2018-12-01T19:34:32.226Z,138.43
2018-12-01T19:37:02.691Z,130.63
2018-12-01T19:39:32.965Z,122.95
2018-12-01T19:42:03.528Z,123.60
2018-12-01T19:44:34.167Z,121.05
2018-12-01T19:47:04.700Z,128.60
2018-12-01T19:49:35.523Z,131.50
2018-12-01T19:52:06.262Z,140.15
2018-12-01T19:54:36.522Z,138.40
2018-12-01T19:57:07.866Z,136.50
2018-12-01T19:59:38.187Z,134.03
2018-12-01T20:02:08.561Z,135.43
2018-12-01T20:04:38.787Z,137.43
2018-12-01T20:07:09.076Z,142.22
2018-12-01T20:09:45.178Z,135.95
2018-12-01T20:12:17.339Z,132.22
2018-12-01T20:14:51.349Z,139.20
2018-12-01T20:17:29.048Z,135.30
2018-12-01T20:20:03.841Z,136.82
2018-12-01T20:22:34.520Z,134.10
2018-12-01T20:25:12.500Z,136.30
2018-12-01T20:27:45.908Z,137.15
2018-12-01T20:30:19.569Z,136.40
2018-12-01T20:32:50.200Z,139.32
2018-12-01T20:35:46.002Z,137.90
2018-12-01T20:38:20.739Z,133.27
2018-12-01T20:40:51.075Z,139.82
2018-12-01T20:43:21.436Z,139.60
2018-12-01T20:45:52.165Z,143.37
2018-12-01T20:48:22.408Z,139.30
2018-12-01T20:50:52.947Z,142.22
2018-12-01T20:53:23.231Z,140.03
2018-12-01T20:55:55.810Z,158.07
2018-12-01T20:58:30.156Z,145.35
2018-12-01T21:01:01.580Z,143.13
2018-12-01T21:03:31.843Z,144.32
2018-12-01T21:06:02.394Z,142.53
2018-12-01T21:08:32.632Z,140.75
2018-12-01T21:11:04.816Z,143.85
2018-12-01T21:13:35.127Z,150.68
2018-12-01T21:16:06.079Z,183.75
2018-12-01T21:18:36.509Z,177.90
2018-12-01T21:21:06.866Z,172.47
2018-12-01T21:23:37.144Z,188.65
2018-12-01T21:26:07.424Z,181.93
2018-12-01T21:28:37.695Z,186.40
2018-12-01T21:31:09.091Z,182.85
2018-12-01T21:33:45.623Z,157.55
2018-12-01T21:36:17.013Z,153.85
2018-12-01T21:38:47.253Z,157.43
2018-12-01T21:41:19.612Z,150.07
2018-12-01T21:43:50.830Z,156.67
2018-12-01T21:46:21.209Z,166.00
2018-12-01T21:48:53.209Z,159.15
2018-12-01T21:51:23.432Z,151.97
2018-12-01T21:53:54.025Z,152.78
2018-12-01T21:56:24.243Z,164.55
2018-12-01T21:58:54.536Z,167.85
2018-12-01T22:01:24.788Z,147.02
2018-12-01T22:03:55.059Z,155.43
2018-12-01T22:06:25.260Z,145.47
2018-12-01T22:08:55.621Z,141.60
2018-12-01T22:11:25.878Z,135.90
2018-12-01T22:13:56.173Z,132.18
2018-12-01T22:16:26.381Z,126.35
2018-12-01T22:18:56.705Z,120.33
2018-12-01T22:21:26.904Z,114.40
2018-12-01T22:23:57.246Z,112.57
2018-12-01T22:26:27.549Z,107.40
2018-12-01T22:28:57.737Z,111.22
2018-12-01T22:31:28.007Z,111.97
2018-12-01T22:33:58.220Z,111.62
2018-12-01T22:36:28.458Z,112.65
2018-12-01T22:38:58.663Z,108.40
2018-12-01T22:41:29.000Z,110.17
2018-12-01T22:43:59.011Z,114.62
2018-12-01T22:46:29.271Z,116.10
2018-12-01T22:48:59.567Z,114.92
2018-12-01T22:51:29.772Z,110.08
2018-12-01T22:54:00.059Z,107.52
2018-12-01T22:56:30.372Z,102.40
2018-12-01T22:59:00.579Z,106.37
2018-12-01T23:01:31.213Z,108.87
2018-12-01T23:04:01.512Z,111.12
2018-12-01T23:06:31.757Z,117.65
2018-12-01T23:09:02.202Z,120.17
2018-12-01T23:11:32.258Z,121.33
2018-12-01T23:14:02.519Z,127.05
2018-12-01T23:16:32.818Z,125.87
2018-12-01T23:19:03.036Z,122.17
2018-12-01T23:21:33.450Z,120.92
2018-12-01T23:24:03.733Z,123.25
2018-12-01T23:26:33.946Z,118.00
2018-12-01T23:29:04.515Z,123.40
2018-12-01T23:31:34.836Z,130.18
2018-12-01T23:34:05.196Z,141.73
2018-12-01T23:36:35.595Z,128.90
2018-12-01T23:39:06.727Z,125.42
2018-12-01T23:41:36.813Z,127.53
2018-12-01T23:44:08.852Z,123.92
2018-12-01T23:46:39.087Z,133.45
2018-12-01T23:49:09.282Z,132.45
2018-12-01T23:51:39.542Z,128.60
2018-12-01T23:54:09.763Z,115.92
2018-12-01T23:56:39.963Z,116.70
2018-12-01T23:59:10.203Z,116.40
